sensor_id;sensor_type;location;lat;lon;timestamp;P1;durP1;ratioP1;P2;durP2;ratioP2
13331;SDS011;6735;51.456;12.626;2024-01-16T00:01:27;3.33;;;2.50;;
13331;SDS011;6735;51.456;12.626;2024-01-16T00:03:53;4.93;;;3.10;;
13331;SDS011;6735;51.456;12.626;2024-01-16T00:06:18;3.53;;;2.90;;
13331;SDS011;6735;51.456;12.626;2024-01-16T00:08:44;5.57;;;2.90;;
13331;SDS011;6735;51.456;12.626;2024-01-16T00:11:09;4.37;;;2.73;;
13331;SDS011;6735;51.456;12.626;2024-01-16T00:13:35;5.07;;;2.73;;
13331;SDS011;6735;51.456;12.626;2024-01-16T00:16:04;3.67;;;2.77;;
13331;SDS011;6735;51.456;12.626;2024-01-16T00:18:29;3.93;;;2.83;;
13331;SDS011;6735;51.456;12.626;2024-01-16T00:20:55;6.60;;;3.97;;
13331;SDS011;6735;51.456;12.626;2024-01-16T00:23:20;4.83;;;3.97;;
13331;SDS011;6735;51.456;12.626;2024-01-16T00:25:46;3.60;;;3.23;;
13331;SDS011;6735;51.456;12.626;2024-01-16T00:28:11;4.13;;;3.30;;
13331;SDS011;6735;51.456;12.626;2024-01-16T00:30:37;4.87;;;3.37;;
13331;SDS011;6735;51.456;12.626;2024-01-16T00:33:03;5.03;;;3.30;;
13331;SDS011;6735;51.456;12.626;2024-01-16T00:35:28;3.93;;;3.57;;
13331;SDS011;6735;51.456;12.626;2024-01-16T00:37:54;4.93;;;3.37;;
13331;SDS011;6735;51.456;12.626;2024-01-16T00:40:19;4.70;;;3.80;;
13331;SDS011;6735;51.456;12.626;2024-01-16T00:42:44;5.87;;;3.40;;
13331;SDS011;6735;51.456;12.626;2024-01-16T00:45:10;4.30;;;3.27;;
13331;SDS011;6735;51.456;12.626;2024-01-16T00:47:35;7.17;;;3.53;;
13331;SDS011;6735;51.456;12.626;2024-01-16T00:50:01;8.17;;;5.07;;
13331;SDS011;6735;51.456;12.626;2024-01-16T00:52:27;3.60;;;3.30;;
13331;SDS011;6735;51.456;12.626;2024-01-16T00:54:52;5.57;;;3.53;;
13331;SDS011;6735;51.456;12.626;2024-01-16T00:57:18;5.10;;;3.43;;
13331;SDS011;6735;51.456;12.626;2024-01-16T00:59:46;3.50;;;3.00;;
13331;SDS011;6735;51.456;12.626;2024-01-16T01:02:12;4.10;;;3.57;;
13331;SDS011;6735;51.456;12.626;2024-01-16T01:04:38;4.07;;;3.03;;
13331;SDS011;6735;51.456;12.626;2024-01-16T01:07:03;4.53;;;3.53;;
13331;SDS011;6735;51.456;12.626;2024-01-16T01:09:29;4.00;;;3.60;;
13331;SDS011;6735;51.456;12.626;2024-01-16T01:11:57;3.87;;;3.40;;
13331;SDS011;6735;51.456;12.626;2024-01-16T01:14:22;7.97;;;4.57;;
13331;SDS011;6735;51.456;12.626;2024-01-16T01:16:48;5.30;;;3.17;;
13331;SDS011;6735;51.456;12.626;2024-01-16T01:19:13;5.83;;;3.03;;
13331;SDS011;6735;51.456;12.626;2024-01-16T01:21:39;3.70;;;2.70;;
13331;SDS011;6735;51.456;12.626;2024-01-16T01:24:04;3.93;;;2.80;;
13331;SDS011;6735;51.456;12.626;2024-01-16T01:26:29;8.97;;;3.40;;
13331;SDS011;6735;51.456;12.626;2024-01-16T01:28:55;4.53;;;2.67;;
13331;SDS011;6735;51.456;12.626;2024-01-16T01:31:20;4.50;;;3.73;;
13331;SDS011;6735;51.456;12.626;2024-01-16T01:33:46;3.23;;;2.93;;
13331;SDS011;6735;51.456;12.626;2024-01-16T01:36:12;3.63;;;3.07;;
13331;SDS011;6735;51.456;12.626;2024-01-16T01:38:38;3.30;;;3.00;;
13331;SDS011;6735;51.456;12.626;2024-01-16T01:41:03;2.93;;;2.63;;
13331;SDS011;6735;51.456;12.626;2024-01-16T01:43:29;3.37;;;3.00;;
13331;SDS011;6735;51.456;12.626;2024-01-16T01:46:11;4.07;;;2.83;;
13331;SDS011;6735;51.456;12.626;2024-01-16T01:48:41;3.30;;;3.00;;
13331;SDS011;6735;51.456;12.626;2024-01-16T01:51:07;5.60;;;3.03;;
13331;SDS011;6735;51.456;12.626;2024-01-16T01:53:37;5.40;;;3.37;;
13331;SDS011;6735;51.456;12.626;2024-01-16T01:56:04;3.93;;;3.47;;
13331;SDS011;6735;51.456;12.626;2024-01-16T01:58:32;4.53;;;3.67;;
13331;SDS011;6735;51.456;12.626;2024-01-16T02:00:59;4.00;;;2.77;;
13331;SDS011;6735;51.456;12.626;2024-01-16T02:03:26;3.53;;;2.63;;
13331;SDS011;6735;51.456;12.626;2024-01-16T02:05:55;8.40;;;2.90;;
13331;SDS011;6735;51.456;12.626;2024-01-16T02:08:20;5.07;;;2.60;;
13331;SDS011;6735;51.456;12.626;2024-01-16T02:10:47;3.13;;;2.37;;
13331;SDS011;6735;51.456;12.626;2024-01-16T02:13:14;3.17;;;2.73;;
13331;SDS011;6735;51.456;12.626;2024-01-16T02:15:40;2.60;;;2.40;;
13331;SDS011;6735;51.456;12.626;2024-01-16T02:18:06;3.90;;;2.40;;
13331;SDS011;6735;51.456;12.626;2024-01-16T02:20:32;4.80;;;2.33;;
13331;SDS011;6735;51.456;12.626;2024-01-16T02:22:58;2.67;;;2.40;;
13331;SDS011;6735;51.456;12.626;2024-01-16T02:25:28;4.13;;;2.13;;
13331;SDS011;6735;51.456;12.626;2024-01-16T02:27:53;3.80;;;2.50;;
13331;SDS011;6735;51.456;12.626;2024-01-16T02:30:19;2.67;;;1.97;;
13331;SDS011;6735;51.456;12.626;2024-01-16T02:32:44;2.83;;;2.43;;
13331;SDS011;6735;51.456;12.626;2024-01-16T02:35:10;4.03;;;2.20;;
13331;SDS011;6735;51.456;12.626;2024-01-16T02:37:35;2.83;;;2.03;;
13331;SDS011;6735;51.456;12.626;2024-01-16T02:40:01;2.40;;;2.10;;
13331;SDS011;6735;51.456;12.626;2024-01-16T02:42:31;4.87;;;2.37;;
13331;SDS011;6735;51.456;12.626;2024-01-16T02:44:57;3.33;;;2.30;;
13331;SDS011;6735;51.456;12.626;2024-01-16T02:47:23;3.27;;;2.13;;
13331;SDS011;6735;51.456;12.626;2024-01-16T02:49:48;3.73;;;2.27;;
13331;SDS011;6735;51.456;12.626;2024-01-16T02:52:13;2.47;;;2.00;;
13331;SDS011;6735;51.456;12.626;2024-01-16T02:54:40;2.93;;;2.20;;
13331;SDS011;6735;51.456;12.626;2024-01-16T02:57:05;2.10;;;2.00;;
13331;SDS011;6735;51.456;12.626;2024-01-16T02:59:30;3.27;;;2.20;;
13331;SDS011;6735;51.456;12.626;2024-01-16T03:01:56;2.17;;;2.00;;
13331;SDS011;6735;51.456;12.626;2024-01-16T03:04:21;2.27;;;2.07;;
13331;SDS011;6735;51.456;12.626;2024-01-16T03:06:47;3.47;;;2.17;;
13331;SDS011;6735;51.456;12.626;2024-01-16T03:09:12;2.73;;;2.20;;
13331;SDS011;6735;51.456;12.626;2024-01-16T03:11:38;2.57;;;2.27;;
13331;SDS011;6735;51.456;12.626;2024-01-16T03:14:04;2.37;;;2.17;;
13331;SDS011;6735;51.456;12.626;2024-01-16T03:16:30;3.37;;;2.83;;
13331;SDS011;6735;51.456;12.626;2024-01-16T03:18:57;2.60;;;1.83;;
13331;SDS011;6735;51.456;12.626;2024-01-16T03:21:22;2.43;;;1.97;;
13331;SDS011;6735;51.456;12.626;2024-01-16T03:23:48;4.97;;;2.10;;
13331;SDS011;6735;51.456;12.626;2024-01-16T03:26:13;4.10;;;2.60;;
13331;SDS011;6735;51.456;12.626;2024-01-16T03:28:39;2.90;;;2.07;;
13331;SDS011;6735;51.456;12.626;2024-01-16T03:31:05;4.17;;;2.30;;
13331;SDS011;6735;51.456;12.626;2024-01-16T03:33:31;2.77;;;1.93;;
13331;SDS011;6735;51.456;12.626;2024-01-16T03:35:56;3.60;;;2.03;;
13331;SDS011;6735;51.456;12.626;2024-01-16T03:38:22;2.67;;;1.97;;
13331;SDS011;6735;51.456;12.626;2024-01-16T03:40:47;2.03;;;1.83;;
13331;SDS011;6735;51.456;12.626;2024-01-16T03:43:12;3.83;;;1.90;;
13331;SDS011;6735;51.456;12.626;2024-01-16T03:45:38;3.93;;;2.00;;
13331;SDS011;6735;51.456;12.626;2024-01-16T03:48:04;1.77;;;1.67;;
13331;SDS011;6735;51.456;12.626;2024-01-16T03:50:30;5.00;;;1.90;;
13331;SDS011;6735;51.456;12.626;2024-01-16T03:52:55;2.80;;;2.00;;
13331;SDS011;6735;51.456;12.626;2024-01-16T03:55:21;3.60;;;2.17;;
13331;SDS011;6735;51.456;12.626;2024-01-16T03:57:46;4.20;;;2.30;;
13331;SDS011;6735;51.456;12.626;2024-01-16T04:00:12;4.80;;;2.30;;
13331;SDS011;6735;51.456;12.626;2024-01-16T04:02:38;2.40;;;2.20;;
13331;SDS011;6735;51.456;12.626;2024-01-16T04:05:04;3.07;;;2.57;;
13331;SDS011;6735;51.456;12.626;2024-01-16T04:07:30;2.67;;;2.10;;
13331;SDS011;6735;51.456;12.626;2024-01-16T04:09:56;3.33;;;2.30;;
13331;SDS011;6735;51.456;12.626;2024-01-16T04:12:21;3.33;;;2.10;;
13331;SDS011;6735;51.456;12.626;2024-01-16T04:14:47;2.33;;;2.13;;
13331;SDS011;6735;51.456;12.626;2024-01-16T04:17:12;2.93;;;2.63;;
13331;SDS011;6735;51.456;12.626;2024-01-16T04:19:38;2.30;;;2.10;;
13331;SDS011;6735;51.456;12.626;2024-01-16T04:22:04;2.50;;;2.30;;
13331;SDS011;6735;51.456;12.626;2024-01-16T04:24:30;3.20;;;2.67;;
13331;SDS011;6735;51.456;12.626;2024-01-16T04:26:55;3.00;;;2.40;;
13331;SDS011;6735;51.456;12.626;2024-01-16T04:29:21;2.40;;;2.20;;
13331;SDS011;6735;51.456;12.626;2024-01-16T04:31:46;2.53;;;2.30;;
13331;SDS011;6735;51.456;12.626;2024-01-16T04:34:12;6.20;;;2.43;;
13331;SDS011;6735;51.456;12.626;2024-01-16T04:36:38;3.30;;;2.30;;
13331;SDS011;6735;51.456;12.626;2024-01-16T04:39:03;2.60;;;2.40;;
13331;SDS011;6735;51.456;12.626;2024-01-16T04:41:29;3.23;;;2.17;;
13331;SDS011;6735;51.456;12.626;2024-01-16T04:43:54;3.57;;;2.20;;
13331;SDS011;6735;51.456;12.626;2024-01-16T04:46:20;2.53;;;2.30;;
13331;SDS011;6735;51.456;12.626;2024-01-16T04:48:45;2.53;;;2.33;;
13331;SDS011;6735;51.456;12.626;2024-01-16T04:51:11;2.67;;;2.47;;
13331;SDS011;6735;51.456;12.626;2024-01-16T04:53:36;5.30;;;2.60;;
13331;SDS011;6735;51.456;12.626;2024-01-16T04:56:02;3.10;;;2.40;;
13331;SDS011;6735;51.456;12.626;2024-01-16T04:58:28;3.43;;;2.50;;
13331;SDS011;6735;51.456;12.626;2024-01-16T05:00:53;2.23;;;2.13;;
13331;SDS011;6735;51.456;12.626;2024-01-16T05:03:19;2.70;;;2.50;;
13331;SDS011;6735;51.456;12.626;2024-01-16T05:05:44;2.57;;;2.37;;
13331;SDS011;6735;51.456;12.626;2024-01-16T05:08:10;3.00;;;2.40;;
13331;SDS011;6735;51.456;12.626;2024-01-16T05:10:35;3.63;;;2.70;;
13331;SDS011;6735;51.456;12.626;2024-01-16T05:13:01;3.60;;;2.80;;
13331;SDS011;6735;51.456;12.626;2024-01-16T05:15:26;4.07;;;2.80;;
13331;SDS011;6735;51.456;12.626;2024-01-16T05:17:52;4.63;;;2.70;;
13331;SDS011;6735;51.456;12.626;2024-01-16T05:20:18;2.70;;;2.47;;
13331;SDS011;6735;51.456;12.626;2024-01-16T05:22:43;5.30;;;3.00;;
13331;SDS011;6735;51.456;12.626;2024-01-16T05:25:09;6.07;;;2.97;;
13331;SDS011;6735;51.456;12.626;2024-01-16T05:27:34;5.70;;;3.20;;
13331;SDS011;6735;51.456;12.626;2024-01-16T05:30:00;2.97;;;2.70;;
13331;SDS011;6735;51.456;12.626;2024-01-16T05:32:26;5.03;;;2.97;;
13331;SDS011;6735;51.456;12.626;2024-01-16T05:34:52;6.60;;;2.90;;
13331;SDS011;6735;51.456;12.626;2024-01-16T05:37:17;3.60;;;3.20;;
13331;SDS011;6735;51.456;12.626;2024-01-16T05:39:43;4.73;;;3.00;;
13331;SDS011;6735;51.456;12.626;2024-01-16T05:42:09;9.20;;;3.40;;
13331;SDS011;6735;51.456;12.626;2024-01-16T05:44:36;5.30;;;3.20;;
13331;SDS011;6735;51.456;12.626;2024-01-16T05:47:02;4.47;;;3.60;;
13331;SDS011;6735;51.456;12.626;2024-01-16T05:49:27;4.60;;;3.00;;
13331;SDS011;6735;51.456;12.626;2024-01-16T05:51:53;6.40;;;3.30;;
13331;SDS011;6735;51.456;12.626;2024-01-16T05:54:18;4.80;;;3.10;;
13331;SDS011;6735;51.456;12.626;2024-01-16T05:56:43;3.10;;;2.80;;
13331;SDS011;6735;51.456;12.626;2024-01-16T05:59:09;5.93;;;3.13;;
13331;SDS011;6735;51.456;12.626;2024-01-16T06:01:34;4.07;;;3.03;;
13331;SDS011;6735;51.456;12.626;2024-01-16T06:04:00;4.77;;;3.20;;
13331;SDS011;6735;51.456;12.626;2024-01-16T06:06:25;5.93;;;3.03;;
13331;SDS011;6735;51.456;12.626;2024-01-16T06:08:51;3.80;;;3.40;;
13331;SDS011;6735;51.456;12.626;2024-01-16T06:11:17;4.83;;;3.33;;
13331;SDS011;6735;51.456;12.626;2024-01-16T06:13:43;5.17;;;2.97;;
13331;SDS011;6735;51.456;12.626;2024-01-16T06:16:08;3.57;;;3.27;;
13331;SDS011;6735;51.456;12.626;2024-01-16T06:18:34;5.10;;;3.20;;
13331;SDS011;6735;51.456;12.626;2024-01-16T06:21:00;3.67;;;3.23;;
13331;SDS011;6735;51.456;12.626;2024-01-16T06:23:26;10.37;;;7.27;;
13331;SDS011;6735;51.456;12.626;2024-01-16T06:25:52;6.40;;;3.87;;
13331;SDS011;6735;51.456;12.626;2024-01-16T06:28:17;8.90;;;3.70;;
13331;SDS011;6735;51.456;12.626;2024-01-16T06:30:43;5.77;;;3.83;;
13331;SDS011;6735;51.456;12.626;2024-01-16T06:33:08;4.20;;;3.80;;
13331;SDS011;6735;51.456;12.626;2024-01-16T06:35:34;6.50;;;3.40;;
13331;SDS011;6735;51.456;12.626;2024-01-16T06:37:59;6.03;;;4.20;;
13331;SDS011;6735;51.456;12.626;2024-01-16T06:40:24;8.43;;;4.70;;
13331;SDS011;6735;51.456;12.626;2024-01-16T06:42:50;5.73;;;4.13;;
13331;SDS011;6735;51.456;12.626;2024-01-16T06:45:15;13.13;;;4.90;;
13331;SDS011;6735;51.456;12.626;2024-01-16T06:47:41;13.13;;;4.17;;
13331;SDS011;6735;51.456;12.626;2024-01-16T06:50:07;4.67;;;3.70;;
13331;SDS011;6735;51.456;12.626;2024-01-16T06:52:33;7.30;;;4.17;;
13331;SDS011;6735;51.456;12.626;2024-01-16T06:54:58;6.17;;;3.77;;
13331;SDS011;6735;51.456;12.626;2024-01-16T06:57:24;4.40;;;3.40;;
13331;SDS011;6735;51.456;12.626;2024-01-16T06:59:49;5.93;;;4.10;;
13331;SDS011;6735;51.456;12.626;2024-01-16T07:02:14;5.20;;;4.30;;
13331;SDS011;6735;51.456;12.626;2024-01-16T07:04:40;6.80;;;3.93;;
13331;SDS011;6735;51.456;12.626;2024-01-16T07:07:05;7.77;;;3.50;;
13331;SDS011;6735;51.456;12.626;2024-01-16T07:09:31;5.97;;;3.60;;
13331;SDS011;6735;51.456;12.626;2024-01-16T07:11:56;5.87;;;3.00;;
13331;SDS011;6735;51.456;12.626;2024-01-16T07:14:22;6.17;;;3.40;;
13331;SDS011;6735;51.456;12.626;2024-01-16T07:16:47;3.70;;;3.17;;
13331;SDS011;6735;51.456;12.626;2024-01-16T07:19:14;3.87;;;2.90;;
13331;SDS011;6735;51.456;12.626;2024-01-16T07:21:40;8.23;;;3.93;;
13331;SDS011;6735;51.456;12.626;2024-01-16T07:24:05;4.83;;;3.60;;
13331;SDS011;6735;51.456;12.626;2024-01-16T07:26:32;6.83;;;3.97;;
13331;SDS011;6735;51.456;12.626;2024-01-16T07:28:57;3.63;;;3.30;;
13331;SDS011;6735;51.456;12.626;2024-01-16T07:31:23;6.10;;;3.13;;
13331;SDS011;6735;51.456;12.626;2024-01-16T07:33:48;5.63;;;3.20;;
13331;SDS011;6735;51.456;12.626;2024-01-16T07:36:14;5.33;;;3.63;;
13331;SDS011;6735;51.456;12.626;2024-01-16T07:38:39;4.70;;;3.50;;
13331;SDS011;6735;51.456;12.626;2024-01-16T07:41:05;5.43;;;3.37;;
13331;SDS011;6735;51.456;12.626;2024-01-16T07:43:31;7.30;;;3.80;;
13331;SDS011;6735;51.456;12.626;2024-01-16T07:45:57;7.40;;;4.03;;
13331;SDS011;6735;51.456;12.626;2024-01-16T07:48:22;8.17;;;4.13;;
13331;SDS011;6735;51.456;12.626;2024-01-16T07:50:49;7.10;;;4.20;;
13331;SDS011;6735;51.456;12.626;2024-01-16T07:53:14;6.93;;;4.07;;
13331;SDS011;6735;51.456;12.626;2024-01-16T07:55:40;7.63;;;3.70;;
13331;SDS011;6735;51.456;12.626;2024-01-16T07:58:06;6.23;;;3.77;;
13331;SDS011;6735;51.456;12.626;2024-01-16T08:00:32;4.90;;;3.27;;
13331;SDS011;6735;51.456;12.626;2024-01-16T08:02:57;6.40;;;3.87;;
13331;SDS011;6735;51.456;12.626;2024-01-16T08:05:23;6.07;;;3.97;;
13331;SDS011;6735;51.456;12.626;2024-01-16T08:07:50;6.47;;;4.30;;
13331;SDS011;6735;51.456;12.626;2024-01-16T08:10:16;4.90;;;3.73;;
13331;SDS011;6735;51.456;12.626;2024-01-16T08:12:42;5.67;;;3.53;;
13331;SDS011;6735;51.456;12.626;2024-01-16T08:15:08;10.20;;;4.07;;
13331;SDS011;6735;51.456;12.626;2024-01-16T08:17:33;7.70;;;3.53;;
13331;SDS011;6735;51.456;12.626;2024-01-16T08:19:59;7.90;;;3.47;;
13331;SDS011;6735;51.456;12.626;2024-01-16T08:22:24;6.57;;;3.73;;
13331;SDS011;6735;51.456;12.626;2024-01-16T08:24:50;5.20;;;3.97;;
13331;SDS011;6735;51.456;12.626;2024-01-16T08:27:15;8.40;;;4.60;;
13331;SDS011;6735;51.456;12.626;2024-01-16T08:29:41;6.43;;;3.77;;
13331;SDS011;6735;51.456;12.626;2024-01-16T08:32:07;6.27;;;3.57;;
13331;SDS011;6735;51.456;12.626;2024-01-16T08:34:33;8.47;;;4.00;;
13331;SDS011;6735;51.456;12.626;2024-01-16T08:36:58;5.87;;;3.97;;
13331;SDS011;6735;51.456;12.626;2024-01-16T08:39:24;12.17;;;4.57;;
13331;SDS011;6735;51.456;12.626;2024-01-16T08:41:50;5.40;;;3.40;;
13331;SDS011;6735;51.456;12.626;2024-01-16T08:44:15;6.80;;;3.67;;
13331;SDS011;6735;51.456;12.626;2024-01-16T08:46:41;4.40;;;3.30;;
13331;SDS011;6735;51.456;12.626;2024-01-16T08:49:06;9.60;;;3.63;;
13331;SDS011;6735;51.456;12.626;2024-01-16T08:51:32;7.47;;;3.40;;
13331;SDS011;6735;51.456;12.626;2024-01-16T08:53:57;4.40;;;3.33;;
13331;SDS011;6735;51.456;12.626;2024-01-16T08:56:23;7.53;;;3.60;;
13331;SDS011;6735;51.456;12.626;2024-01-16T08:58:48;7.13;;;4.00;;
13331;SDS011;6735;51.456;12.626;2024-01-16T09:01:14;7.77;;;3.73;;
13331;SDS011;6735;51.456;12.626;2024-01-16T09:03:39;7.10;;;3.90;;
13331;SDS011;6735;51.456;12.626;2024-01-16T09:06:06;7.37;;;4.47;;
13331;SDS011;6735;51.456;12.626;2024-01-16T09:08:31;7.17;;;4.20;;
13331;SDS011;6735;51.456;12.626;2024-01-16T09:10:57;5.73;;;3.60;;
13331;SDS011;6735;51.456;12.626;2024-01-16T09:13:22;3.77;;;3.33;;
13331;SDS011;6735;51.456;12.626;2024-01-16T09:15:48;6.20;;;3.67;;
13331;SDS011;6735;51.456;12.626;2024-01-16T09:18:14;5.23;;;3.90;;
13331;SDS011;6735;51.456;12.626;2024-01-16T09:20:41;6.13;;;3.60;;
13331;SDS011;6735;51.456;12.626;2024-01-16T09:23:07;4.27;;;3.20;;
13331;SDS011;6735;51.456;12.626;2024-01-16T09:25:33;5.53;;;3.50;;
13331;SDS011;6735;51.456;12.626;2024-01-16T09:27:59;5.63;;;3.50;;
13331;SDS011;6735;51.456;12.626;2024-01-16T09:30:25;4.70;;;3.40;;
13331;SDS011;6735;51.456;12.626;2024-01-16T09:32:51;29.40;;;4.30;;
13331;SDS011;6735;51.456;12.626;2024-01-16T09:35:16;9.53;;;4.43;;
13331;SDS011;6735;51.456;12.626;2024-01-16T09:37:41;4.97;;;3.17;;
13331;SDS011;6735;51.456;12.626;2024-01-16T09:40:07;4.93;;;3.43;;
13331;SDS011;6735;51.456;12.626;2024-01-16T09:42:33;5.37;;;3.70;;
13331;SDS011;6735;51.456;12.626;2024-01-16T09:45:00;7.27;;;4.23;;
13331;SDS011;6735;51.456;12.626;2024-01-16T09:47:27;6.87;;;5.30;;
13331;SDS011;6735;51.456;12.626;2024-01-16T09:49:55;4.23;;;3.60;;
13331;SDS011;6735;51.456;12.626;2024-01-16T09:52:24;6.53;;;4.17;;
13331;SDS011;6735;51.456;12.626;2024-01-16T09:54:50;8.10;;;3.73;;
13331;SDS011;6735;51.456;12.626;2024-01-16T09:57:16;6.57;;;4.43;;
13331;SDS011;6735;51.456;12.626;2024-01-16T09:59:47;6.77;;;3.80;;
13331;SDS011;6735;51.456;12.626;2024-01-16T10:02:13;7.53;;;3.90;;
13331;SDS011;6735;51.456;12.626;2024-01-16T10:04:39;6.33;;;3.23;;
13331;SDS011;6735;51.456;12.626;2024-01-16T10:07:09;5.07;;;3.43;;
13331;SDS011;6735;51.456;12.626;2024-01-16T10:09:37;7.40;;;4.20;;
13331;SDS011;6735;51.456;12.626;2024-01-16T10:12:03;6.57;;;3.40;;
13331;SDS011;6735;51.456;12.626;2024-01-16T10:14:30;5.37;;;3.53;;
13331;SDS011;6735;51.456;12.626;2024-01-16T10:17:02;4.73;;;3.83;;
13331;SDS011;6735;51.456;12.626;2024-01-16T10:19:34;6.50;;;3.40;;
13331;SDS011;6735;51.456;12.626;2024-01-16T10:22:03;3.57;;;3.10;;
13331;SDS011;6735;51.456;12.626;2024-01-16T10:24:29;8.07;;;3.97;;
13331;SDS011;6735;51.456;12.626;2024-01-16T10:26:58;5.57;;;2.93;;
13331;SDS011;6735;51.456;12.626;2024-01-16T10:29:31;5.70;;;3.47;;
13331;SDS011;6735;51.456;12.626;2024-01-16T10:31:57;4.63;;;3.10;;
13331;SDS011;6735;51.456;12.626;2024-01-16T10:34:23;6.97;;;4.70;;
13331;SDS011;6735;51.456;12.626;2024-01-16T10:36:49;4.30;;;3.30;;
13331;SDS011;6735;51.456;12.626;2024-01-16T10:39:17;5.50;;;3.00;;
13331;SDS011;6735;51.456;12.626;2024-01-16T10:41:53;7.17;;;3.43;;
13331;SDS011;6735;51.456;12.626;2024-01-16T10:44:22;3.80;;;2.87;;
13331;SDS011;6735;51.456;12.626;2024-01-16T10:46:48;7.33;;;3.80;;
13331;SDS011;6735;51.456;12.626;2024-01-16T10:49:14;7.07;;;3.10;;
13331;SDS011;6735;51.456;12.626;2024-01-16T10:51:41;5.97;;;3.27;;
13331;SDS011;6735;51.456;12.626;2024-01-16T10:54:08;6.10;;;3.30;;
13331;SDS011;6735;51.456;12.626;2024-01-16T10:56:41;6.57;;;2.87;;
13331;SDS011;6735;51.456;12.626;2024-01-16T10:59:19;6.40;;;3.60;;
13331;SDS011;6735;51.456;12.626;2024-01-16T11:01:51;6.63;;;2.83;;
13331;SDS011;6735;51.456;12.626;2024-01-16T11:04:19;5.33;;;3.10;;
13331;SDS011;6735;51.456;12.626;2024-01-16T11:06:46;3.77;;;3.10;;
13331;SDS011;6735;51.456;12.626;2024-01-16T11:09:14;5.13;;;3.17;;
13331;SDS011;6735;51.456;12.626;2024-01-16T11:11:41;3.67;;;2.93;;
13331;SDS011;6735;51.456;12.626;2024-01-16T11:14:08;4.37;;;3.43;;
13331;SDS011;6735;51.456;12.626;2024-01-16T11:16:37;5.43;;;3.13;;
13331;SDS011;6735;51.456;12.626;2024-01-16T11:19:05;4.90;;;3.33;;
13331;SDS011;6735;51.456;12.626;2024-01-16T11:21:34;4.00;;;2.90;;
13331;SDS011;6735;51.456;12.626;2024-01-16T11:24:04;6.20;;;3.20;;
13331;SDS011;6735;51.456;12.626;2024-01-16T11:26:37;6.00;;;3.53;;
13331;SDS011;6735;51.456;12.626;2024-01-16T11:31:53;5.67;;;3.17;;
13331;SDS011;6735;51.456;12.626;2024-01-16T11:37:10;5.60;;;3.40;;
13331;SDS011;6735;51.456;12.626;2024-01-16T11:39:37;5.03;;;3.17;;
13331;SDS011;6735;51.456;12.626;2024-01-16T11:42:03;6.97;;;3.23;;
13331;SDS011;6735;51.456;12.626;2024-01-16T11:44:41;10.17;;;3.73;;
13331;SDS011;6735;51.456;12.626;2024-01-16T11:47:15;5.73;;;3.10;;
13331;SDS011;6735;51.456;12.626;2024-01-16T11:49:45;3.70;;;3.13;;
13331;SDS011;6735;51.456;12.626;2024-01-16T11:52:11;4.13;;;3.00;;
13331;SDS011;6735;51.456;12.626;2024-01-16T11:54:38;6.03;;;3.20;;
13331;SDS011;6735;51.456;12.626;2024-01-16T11:57:09;4.80;;;3.33;;
13331;SDS011;6735;51.456;12.626;2024-01-16T12:00:06;5.10;;;3.13;;
13331;SDS011;6735;51.456;12.626;2024-01-16T12:02:58;3.97;;;3.23;;
13331;SDS011;6735;51.456;12.626;2024-01-16T12:05:28;5.53;;;3.20;;
13331;SDS011;6735;51.456;12.626;2024-01-16T12:07:53;5.83;;;3.13;;
13331;SDS011;6735;51.456;12.626;2024-01-16T12:10:20;5.20;;;3.00;;
13331;SDS011;6735;51.456;12.626;2024-01-16T12:12:47;5.13;;;3.00;;
13331;SDS011;6735;51.456;12.626;2024-01-16T12:15:14;5.03;;;3.13;;
13331;SDS011;6735;51.456;12.626;2024-01-16T12:20:25;8.00;;;3.30;;
13331;SDS011;6735;51.456;12.626;2024-01-16T12:22:56;5.50;;;3.23;;
13331;SDS011;6735;51.456;12.626;2024-01-16T12:25:30;6.27;;;3.40;;
13331;SDS011;6735;51.456;12.626;2024-01-16T12:28:03;6.30;;;3.30;;
13331;SDS011;6735;51.456;12.626;2024-01-16T12:30:30;3.20;;;2.90;;
13331;SDS011;6735;51.456;12.626;2024-01-16T12:33:07;5.77;;;3.00;;
13331;SDS011;6735;51.456;12.626;2024-01-16T12:35:42;6.33;;;3.20;;
13331;SDS011;6735;51.456;12.626;2024-01-16T12:38:12;6.03;;;3.50;;
13331;SDS011;6735;51.456;12.626;2024-01-16T12:40:47;10.43;;;4.00;;
13331;SDS011;6735;51.456;12.626;2024-01-16T12:43:16;6.60;;;4.40;;
13331;SDS011;6735;51.456;12.626;2024-01-16T12:45:43;3.40;;;3.10;;
13331;SDS011;6735;51.456;12.626;2024-01-16T12:48:09;5.07;;;3.07;;
13331;SDS011;6735;51.456;12.626;2024-01-16T12:50:36;8.30;;;3.70;;
13331;SDS011;6735;51.456;12.626;2024-01-16T12:53:03;6.37;;;3.50;;
13331;SDS011;6735;51.456;12.626;2024-01-16T12:55:29;9.23;;;4.30;;
13331;SDS011;6735;51.456;12.626;2024-01-16T13:00:42;5.53;;;4.13;;
13331;SDS011;6735;51.456;12.626;2024-01-16T13:03:14;4.57;;;3.40;;
13331;SDS011;6735;51.456;12.626;2024-01-16T13:05:55;5.33;;;4.40;;
13331;SDS011;6735;51.456;12.626;2024-01-16T13:08:21;5.73;;;3.80;;
13331;SDS011;6735;51.456;12.626;2024-01-16T13:11:10;4.90;;;3.80;;
13331;SDS011;6735;51.456;12.626;2024-01-16T13:13:35;7.33;;;4.70;;
13331;SDS011;6735;51.456;12.626;2024-01-16T13:16:01;7.77;;;4.97;;
13331;SDS011;6735;51.456;12.626;2024-01-16T13:18:28;8.00;;;4.93;;
13331;SDS011;6735;51.456;12.626;2024-01-16T13:20:55;7.63;;;4.90;;
13331;SDS011;6735;51.456;12.626;2024-01-16T13:23:22;9.40;;;5.80;;
13331;SDS011;6735;51.456;12.626;2024-01-16T13:25:50;5.47;;;4.20;;
13331;SDS011;6735;51.456;12.626;2024-01-16T13:28:16;10.13;;;6.40;;
13331;SDS011;6735;51.456;12.626;2024-01-16T13:30:44;7.87;;;4.37;;
13331;SDS011;6735;51.456;12.626;2024-01-16T13:33:10;5.07;;;3.93;;
13331;SDS011;6735;51.456;12.626;2024-01-16T13:35:40;6.43;;;4.17;;
13331;SDS011;6735;51.456;12.626;2024-01-16T13:38:07;7.23;;;4.70;;
13331;SDS011;6735;51.456;12.626;2024-01-16T13:40:34;5.43;;;4.37;;
13331;SDS011;6735;51.456;12.626;2024-01-16T13:43:01;8.47;;;4.93;;
13331;SDS011;6735;51.456;12.626;2024-01-16T13:45:27;6.93;;;4.53;;
13331;SDS011;6735;51.456;12.626;2024-01-16T13:47:53;6.60;;;4.70;;
13331;SDS011;6735;51.456;12.626;2024-01-16T13:50:19;6.10;;;4.70;;
13331;SDS011;6735;51.456;12.626;2024-01-16T13:52:44;7.30;;;4.70;;
13331;SDS011;6735;51.456;12.626;2024-01-16T13:55:10;7.57;;;5.67;;
13331;SDS011;6735;51.456;12.626;2024-01-16T13:57:36;7.53;;;5.23;;
13331;SDS011;6735;51.456;12.626;2024-01-16T14:00:02;9.47;;;5.30;;
13331;SDS011;6735;51.456;12.626;2024-01-16T14:02:29;8.90;;;5.97;;
13331;SDS011;6735;51.456;12.626;2024-01-16T14:04:55;18.27;;;7.40;;
13331;SDS011;6735;51.456;12.626;2024-01-16T14:07:20;12.73;;;6.53;;
13331;SDS011;6735;51.456;12.626;2024-01-16T14:09:46;8.33;;;5.67;;
13331;SDS011;6735;51.456;12.626;2024-01-16T14:12:12;7.87;;;5.93;;
13331;SDS011;6735;51.456;12.626;2024-01-16T14:14:39;6.87;;;5.30;;
13331;SDS011;6735;51.456;12.626;2024-01-16T14:17:06;7.27;;;5.50;;
13331;SDS011;6735;51.456;12.626;2024-01-16T14:19:34;7.50;;;5.00;;
13331;SDS011;6735;51.456;12.626;2024-01-16T14:22:00;7.43;;;5.57;;
13331;SDS011;6735;51.456;12.626;2024-01-16T14:24:25;6.80;;;4.77;;
13331;SDS011;6735;51.456;12.626;2024-01-16T14:26:51;6.60;;;4.57;;
13331;SDS011;6735;51.456;12.626;2024-01-16T14:29:16;8.80;;;4.90;;
13331;SDS011;6735;51.456;12.626;2024-01-16T14:31:43;6.50;;;5.00;;
13331;SDS011;6735;51.456;12.626;2024-01-16T14:34:12;8.90;;;5.33;;
13331;SDS011;6735;51.456;12.626;2024-01-16T14:36:39;7.53;;;5.30;;
13331;SDS011;6735;51.456;12.626;2024-01-16T14:39:05;6.80;;;4.77;;
13331;SDS011;6735;51.456;12.626;2024-01-16T14:41:30;7.87;;;5.00;;
13331;SDS011;6735;51.456;12.626;2024-01-16T14:43:57;7.10;;;5.27;;
13331;SDS011;6735;51.456;12.626;2024-01-16T14:46:23;8.63;;;5.00;;
13331;SDS011;6735;51.456;12.626;2024-01-16T14:48:48;8.20;;;5.00;;
13331;SDS011;6735;51.456;12.626;2024-01-16T14:51:13;8.13;;;4.97;;
13331;SDS011;6735;51.456;12.626;2024-01-16T14:53:39;6.70;;;4.83;;
13331;SDS011;6735;51.456;12.626;2024-01-16T14:56:04;4.87;;;4.37;;